Time;durP1;ratioP1;P1;durP2;ratioP2;P2;SDS_P1;SDS_P2;PMS_P1;PMS_P2;Temp;Humidity;BMP_temperature;BMP_pressure;BME280_temperature;BME280_humidity;BME280_pressure;Samples;Min_cycle;Max_cycle;Signal;HPM_P1;HPM_P2
2021/01/23 00:01:31;;;;;;;4.47;2.50;;;;;;;;;;4931039;29;20267;-76
2021/01/23 00:03:57;;;;;;;5.23;3.00;;;;;;;;;;4933680;29;20733;-77
2021/01/23 00:06:23;;;;;;;7.07;4.00;;;;;;;;;;4929682;29;20288;-76
2021/01/23 00:08:49;;;;;;;6.13;3.47;;;;;;;;;;4946043;28;20331;-77
2021/01/23 00:11:15;;;;;;;4.57;2.40;;;;;;;;;;4930739;29;20279;-77
2021/01/23 00:13:41;;;;;;;4.77;2.70;;;;;;;;;;4945121;29;20334;-76
2021/01/23 00:16:07;;;;;;;5.30;2.93;;;;;;;;;;4929421;29;20650;-76
2021/01/23 00:18:33;;;;;;;4.57;2.40;;;;;;;;;;4945653;28;20350;-76
2021/01/23 00:20:59;;;;;;;5.03;2.70;;;;;;;;;;4944995;28;20282;-77
2021/01/23 00:23:25;;;;;;;5.23;2.93;;;;;;;;;;4930573;29;20316;-77
2021/01/23 00:25:51;;;;;;;6.03;3.10;;;;;;;;;;4937182;29;20264;-77
2021/01/23 00:28:17;;;;;;;4.87;2.53;;;;;;;;;;4929867;29;20272;-77
2021/01/23 00:30:44;;;;;;;4.63;2.50;;;;;;;;;;4944788;29;20264;-77
2021/01/23 00:33:10;;;;;;;4.67;2.23;;;;;;;;;;4945397;29;20350;-77
2021/01/23 00:35:36;;;;;;;5.20;2.80;;;;;;;;;;4941408;29;20278;-77
2021/01/23 00:38:02;;;;;;;3.70;2.20;;;;;;;;;;4931171;28;20291;-76
2021/01/23 00:40:28;;;;;;;6.27;2.70;;;;;;;;;;4953026;28;20847;-76
2021/01/23 00:42:55;;;;;;;5.53;2.60;;;;;;;;;;4934792;29;20354;-77
2021/01/23 00:45:21;;;;;;;5.33;2.70;;;;;;;;;;4948238;28;20275;-77
2021/01/23 00:47:47;;;;;;;4.13;2.13;;;;;;;;;;4934087;28;20299;-76
2021/01/23 00:50:13;;;;;;;3.90;1.73;;;;;;;;;;4933133;29;20276;-77
2021/01/23 00:52:39;;;;;;;3.33;1.83;;;;;;;;;;4931051;29;20350;-77
2021/01/23 00:55:06;;;;;;;3.33;2.10;;;;;;;;;;4932540;29;20666;-76
2021/01/23 00:57:32;;;;;;;3.13;1.70;;;;;;;;;;4944949;28;20492;-77
2021/01/23 00:59:58;;;;;;;3.60;1.70;;;;;;;;;;4948155;29;20315;-77
2021/01/23 01:02:24;;;;;;;2.97;1.43;;;;;;;;;;4935059;29;20862;-76
2021/01/23 01:04:50;;;;;;;3.77;1.80;;;;;;;;;;4946516;28;20283;-77
2021/01/23 01:07:16;;;;;;;3.23;1.73;;;;;;;;;;4948134;29;20370;-77
2021/01/23 01:09:42;;;;;;;3.33;1.70;;;;;;;;;;4956281;28;20694;-75
2021/01/23 01:12:08;;;;;;;2.67;1.40;;;;;;;;;;4933263;29;20280;-77
2021/01/23 01:14:34;;;;;;;1.93;1.20;;;;;;;;;;4947056;28;20286;-77
2021/01/23 01:17:00;;;;;;;1.83;1.10;;;;;;;;;;4932938;29;20306;-77
2021/01/23 01:19:26;;;;;;;2.10;1.10;;;;;;;;;;4947263;28;20355;-77
2021/01/23 01:21:52;;;;;;;1.50;0.70;;;;;;;;;;4947312;28;20718;-77
2021/01/23 01:24:18;;;;;;;1.87;0.97;;;;;;;;;;4950125;28;20284;-77
2021/01/23 01:26:44;;;;;;;1.10;0.60;;;;;;;;;;4938922;29;20271;-77
2021/01/23 01:29:11;;;;;;;0.87;0.37;;;;;;;;;;4934845;28;20287;-76
2021/01/23 01:31:37;;;;;;;1.43;0.50;;;;;;;;;;4932485;29;20286;-77
2021/01/23 01:34:03;;;;;;;0.50;0.40;;;;;;;;;;4946672;29;20282;-77
2021/01/23 01:36:29;;;;;;;1.10;0.50;;;;;;;;;;4948042;28;20289;-76
2021/01/23 01:38:57;;;;;;;0.93;0.47;;;;;;;;;;4931016;28;20366;-77
2021/01/23 01:41:23;;;;;;;0.77;0.30;;;;;;;;;;4947374;29;20330;-77
2021/01/23 01:43:49;;;;;;;1.07;0.50;;;;;;;;;;4947417;29;20268;-78
2021/01/23 01:46:15;;;;;;;1.43;0.47;;;;;;;;;;4965706;28;20343;-79
2021/01/23 01:48:42;;;;;;;0.67;0.33;;;;;;;;;;4952660;28;20310;-77
2021/01/23 01:51:08;;;;;;;0.47;0.30;;;;;;;;;;4936593;29;20283;-77
2021/01/23 01:53:38;;;;;;;1.30;0.70;;;;;;;;;;4947778;29;20721;-77
2021/01/23 01:56:05;;;;;;;1.07;0.50;;;;;;;;;;4935299;28;20280;-77
2021/01/23 01:58:31;;;;;;;0.87;0.50;;;;;;;;;;4930669;29;20307;-77
2021/01/23 02:00:58;;;;;;;0.57;0.40;;;;;;;;;;4943806;28;20284;-77
2021/01/23 02:03:36;;;;;;;0.40;0.40;;;;;;;;;;4921600;29;20283;-77
2021/01/23 02:06:06;;;;;;;0.80;0.60;;;;;;;;;;4945919;28;20264;-77
2021/01/23 02:08:32;;;;;;;0.50;0.30;;;;;;;;;;4945972;28;20279;-77
2021/01/23 02:11:18;;;;;;;1.20;0.40;;;;;;;;;;4934107;29;21175;-77
2021/01/23 02:13:52;;;;;;;2.60;0.47;;;;;;;;;;4927133;29;20278;-77
2021/01/23 02:16:22;;;;;;;0.10;0.10;;;;;;;;;;4931440;29;20394;-77
2021/01/23 02:18:50;;;;;;;0.57;0.40;;;;;;;;;;4945521;28;20272;-77
2021/01/23 02:21:30;;;;;;;0.23;0.23;;;;;;;;;;4946368;29;20276;-77
2021/01/23 02:23:59;;;;;;;0.63;0.30;;;;;;;;;;4952862;28;20287;-77
2021/01/23 02:26:44;;;;;;;4.63;0.53;;;;;;;;;;4931648;29;20267;-77
2021/01/23 02:29:13;;;;;;;0.60;0.23;;;;;;;;;;4945947;28;20292;-77
2021/01/23 02:31:41;;;;;;;0.83;0.40;;;;;;;;;;4943240;29;20278;-77
2021/01/23 02:34:08;;;;;;;0.40;0.23;;;;;;;;;;4935089;29;20371;-77
2021/01/23 02:36:35;;;;;;;0.47;0.30;;;;;;;;;;4923989;29;20295;-78
2021/01/23 02:39:02;;;;;;;1.00;0.50;;;;;;;;;;4943300;28;20342;-77
2021/01/23 02:41:28;;;;;;;0.23;0.20;;;;;;;;;;4931252;29;20274;-77
2021/01/23 02:43:54;;;;;;;0.50;0.23;;;;;;;;;;4931333;29;20268;-77
2021/01/23 02:46:20;;;;;;;0.53;0.10;;;;;;;;;;4939013;29;21250;-77
2021/01/23 02:48:48;;;;;;;1.27;0.70;;;;;;;;;;4933066;29;20287;-80
2021/01/23 02:51:35;;;;;;;0.53;0.40;;;;;;;;;;4931317;29;20268;-77
2021/01/23 02:54:12;;;;;;;0.20;0.20;;;;;;;;;;4948728;28;20375;-78
2021/01/23 02:56:39;;;;;;;0.60;0.33;;;;;;;;;;4943730;28;20296;-80
2021/01/23 02:59:06;;;;;;;0.70;0.60;;;;;;;;;;4947821;28;20330;-78
2021/01/23 03:01:35;;;;;;;1.40;0.57;;;;;;;;;;4942324;28;20272;-77
2021/01/23 03:04:02;;;;;;;1.20;0.53;;;;;;;;;;4947992;29;20347;-78
2021/01/23 03:06:28;;;;;;;1.97;0.70;;;;;;;;;;4931292;29;22115;-78
2021/01/23 03:08:54;;;;;;;1.20;0.70;;;;;;;;;;4949034;28;20291;-77
2021/01/23 03:11:20;;;;;;;1.30;0.67;;;;;;;;;;4934265;29;20299;-77
2021/01/23 03:13:46;;;;;;;1.27;0.70;;;;;;;;;;4934442;29;20282;-78
2021/01/23 03:16:12;;;;;;;1.23;0.57;;;;;;;;;;4931663;29;20788;-79
2021/01/23 03:18:38;;;;;;;1.13;0.50;;;;;;;;;;4945896;28;20271;-77
2021/01/23 03:21:04;;;;;;;3.40;1.00;;;;;;;;;;4949776;28;20291;-77
2021/01/23 03:23:38;;;;;;;2.07;0.77;;;;;;;;;;4948440;29;20781;-78
2021/01/23 03:26:05;;;;;;;2.13;0.70;;;;;;;;;;4933710;29;20275;-77
2021/01/23 03:28:31;;;;;;;1.23;0.93;;;;;;;;;;4949561;28;20287;-77
2021/01/23 03:30:57;;;;;;;1.53;0.70;;;;;;;;;;4939519;29;20280;-77
2021/01/23 03:33:23;;;;;;;1.20;0.70;;;;;;;;;;4947601;29;20741;-77
2021/01/23 03:35:49;;;;;;;0.50;0.40;;;;;;;;;;4952923;28;20279;-77
2021/01/23 03:38:15;;;;;;;0.90;0.63;;;;;;;;;;4934162;28;20291;-77
2021/01/23 03:40:41;;;;;;;1.70;0.70;;;;;;;;;;4932520;29;20276;-77
2021/01/23 03:43:07;;;;;;;1.03;0.57;;;;;;;;;;4946547;28;20415;-77
2021/01/23 03:45:33;;;;;;;1.33;0.50;;;;;;;;;;4944523;28;20355;-77
2021/01/23 03:48:01;;;;;;;1.47;0.67;;;;;;;;;;4945340;28;20283;-77
2021/01/23 03:50:28;;;;;;;1.10;0.70;;;;;;;;;;4943688;28;20492;-77
2021/01/23 03:52:54;;;;;;;1.23;0.67;;;;;;;;;;4948959;28;20288;-77
2021/01/23 03:55:21;;;;;;;2.30;0.83;;;;;;;;;;4948010;29;20268;-77
2021/01/23 03:57:49;;;;;;;1.43;0.70;;;;;;;;;;4954477;28;21351;-77
2021/01/23 04:00:15;;;;;;;1.10;0.67;;;;;;;;;;4949503;29;20339;-77
2021/01/23 04:02:41;;;;;;;0.83;0.50;;;;;;;;;;4932419;29;20694;-77
2021/01/23 04:05:08;;;;;;;1.73;0.90;;;;;;;;;;4946699;28;20378;-77
2021/01/23 04:07:34;;;;;;;1.37;0.67;;;;;;;;;;4930670;28;20326;-76
2021/01/23 04:10:00;;;;;;;0.80;0.63;;;;;;;;;;4929619;29;20271;-78
2021/01/23 04:12:26;;;;;;;1.53;0.83;;;;;;;;;;4939513;29;20438;-80
2021/01/23 04:14:52;;;;;;;1.33;0.73;;;;;;;;;;4937903;29;20267;-80
2021/01/23 04:17:18;;;;;;;1.93;0.93;;;;;;;;;;4931114;29;20295;-77
2021/01/23 04:19:44;;;;;;;1.40;0.70;;;;;;;;;;4947656;29;20712;-80
2021/01/23 04:22:11;;;;;;;1.77;0.77;;;;;;;;;;4945795;29;20282;-78
2021/01/23 04:24:37;;;;;;;1.77;0.83;;;;;;;;;;4948711;29;20280;-77
2021/01/23 04:27:03;;;;;;;2.37;1.27;;;;;;;;;;4933196;29;20370;-77
2021/01/23 04:29:29;;;;;;;3.33;1.40;;;;;;;;;;4948247;28;20279;-77
2021/01/23 04:31:55;;;;;;;3.03;1.50;;;;;;;;;;4942803;29;20274;-77
2021/01/23 04:34:21;;;;;;;2.87;1.23;;;;;;;;;;4948322;29;20297;-77
2021/01/23 04:36:47;;;;;;;4.20;2.10;;;;;;;;;;4934514;29;20390;-77
2021/01/23 04:39:13;;;;;;;3.73;1.87;;;;;;;;;;4933154;29;20275;-77
2021/01/23 04:41:39;;;;;;;3.37;1.80;;;;;;;;;;4948545;29;20272;-78
2021/01/23 04:44:08;;;;;;;4.57;1.90;;;;;;;;;;4948486;29;20303;-77
2021/01/23 04:46:34;;;;;;;3.50;2.03;;;;;;;;;;4917943;29;20280;-78
2021/01/23 04:49:01;;;;;;;3.83;1.90;;;;;;;;;;4935827;28;20354;-80
2021/01/23 04:51:27;;;;;;;6.10;2.70;;;;;;;;;;4937818;29;20287;-77
2021/01/23 04:53:54;;;;;;;6.57;3.10;;;;;;;;;;4932521;29;20278;-77
2021/01/23 04:56:20;;;;;;;5.87;3.20;;;;;;;;;;4932437;29;20288;-77
2021/01/23 04:58:46;;;;;;;7.93;3.90;;;;;;;;;;4946830;28;20279;-78
2021/01/23 05:01:15;;;;;;;8.27;4.70;;;;;;;;;;4948285;29;20335;-81
2021/01/23 05:04:00;;;;;;;8.80;5.30;;;;;;;;;;4947866;29;20442;-79
2021/01/23 05:06:27;;;;;;;7.20;3.83;;;;;;;;;;4931109;29;20474;-78
2021/01/23 05:08:53;;;;;;;8.23;4.13;;;;;;;;;;4946690;29;20279;-77
2021/01/23 05:11:19;;;;;;;7.80;4.03;;;;;;;;;;4933767;29;20415;-78
2021/01/23 05:14:06;;;;;;;7.20;3.70;;;;;;;;;;4948491;29;20303;-78
2021/01/23 05:16:32;;;;;;;6.20;3.40;;;;;;;;;;4934090;29;21024;-77
2021/01/23 05:19:01;;;;;;;7.63;3.90;;;;;;;;;;4922137;29;20260;-79
2021/01/23 05:21:28;;;;;;;6.80;3.57;;;;;;;;;;4939958;28;20295;-77
2021/01/23 05:24:07;;;;;;;6.40;3.33;;;;;;;;;;4937402;29;20275;-77
2021/01/23 05:26:33;;;;;;;5.93;2.53;;;;;;;;;;4949817;28;20299;-77
2021/01/23 05:29:06;;;;;;;6.07;3.30;;;;;;;;;;4960625;28;20287;-77
2021/01/23 05:31:33;;;;;;;5.28;2.55;;;;;;;;;;4948928;29;20645;-77
2021/01/23 05:33:59;;;;;;;5.60;3.13;;;;;;;;;;4934870;29;20055;-77
2021/01/23 05:36:25;;;;;;;6.90;3.10;;;;;;;;;;4933087;29;20422;-78
2021/01/23 05:38:51;;;;;;;6.67;3.37;;;;;;;;;;4945617;29;20278;-78
2021/01/23 05:41:17;;;;;;;6.33;3.37;;;;;;;;;;4932348;29;20366;-77
2021/01/23 05:43:46;;;;;;;7.90;4.10;;;;;;;;;;4949336;28;20275;-81
2021/01/23 05:46:14;;;;;;;8.07;4.70;;;;;;;;;;4951304;28;20279;-77
2021/01/23 05:48:41;;;;;;;8.63;4.90;;;;;;;;;;4932255;29;20287;-77
2021/01/23 05:51:07;;;;;;;8.53;4.70;;;;;;;;;;4939297;29;20326;-77
2021/01/23 05:53:34;;;;;;;9.17;5.20;;;;;;;;;;4948146;29;20370;-78
2021/01/23 05:56:00;;;;;;;8.77;4.87;;;;;;;;;;4946566;29;20378;-78
2021/01/23 05:58:28;;;;;;;7.60;4.40;;;;;;;;;;4931062;29;20292;-78
2021/01/23 06:00:55;;;;;;;9.77;4.63;;;;;;;;;;4947655;28;20626;-77
2021/01/23 06:03:21;;;;;;;9.20;5.10;;;;;;;;;;4949643;28;20299;-78
2021/01/23 06:05:58;;;;;;;11.77;5.67;;;;;;;;;;4939603;29;20279;-78
2021/01/23 06:08:37;;;;;;;10.17;6.07;;;;;;;;;;4949019;28;20279;-78
2021/01/23 06:11:03;;;;;;;10.47;6.70;;;;;;;;;;4946637;29;20366;-77
2021/01/23 06:13:37;;;;;;;10.20;5.80;;;;;;;;;;4947235;29;20367;-78
2021/01/23 06:16:03;;;;;;;11.33;7.20;;;;;;;;;;4931126;29;20299;-77
2021/01/23 06:18:30;;;;;;;11.77;7.50;;;;;;;;;;4947551;28;20284;-78
2021/01/23 06:21:00;;;;;;;11.40;7.03;;;;;;;;;;4946372;28;20283;-78
2021/01/23 06:23:45;;;;;;;11.57;6.73;;;;;;;;;;4947172;29;20546;-77
2021/01/23 06:26:11;;;;;;;11.43;6.97;;;;;;;;;;4951960;28;20271;-76
2021/01/23 06:28:40;;;;;;;12.63;7.83;;;;;;;;;;4932784;29;20752;-77
2021/01/23 06:31:25;;;;;;;14.27;6.90;;;;;;;;;;4946411;29;20295;-77
2021/01/23 06:33:51;;;;;;;15.13;9.70;;;;;;;;;;4946126;28;20283;-77
2021/01/23 06:36:18;;;;;;;23.07;14.53;;;;;;;;;;4944775;28;20366;-77
2021/01/23 06:39:03;;;;;;;17.13;10.10;;;;;;;;;;4929839;29;20340;-77
2021/01/23 06:41:29;;;;;;;12.10;7.70;;;;;;;;;;4946166;29;20311;-76
2021/01/23 06:44:08;;;;;;;11.63;7.03;;;;;;;;;;4930914;29;20326;-79
2021/01/23 06:46:38;;;;;;;13.23;8.37;;;;;;;;;;4938949;29;20288;-78
2021/01/23 06:49:07;;;;;;;14.63;8.80;;;;;;;;;;4935310;28;20853;-77
2021/01/23 06:51:34;;;;;;;17.77;10.07;;;;;;;;;;4931265;29;20290;-78
2021/01/23 06:54:30;;;;;;;14.70;9.67;;;;;;;;;;4945810;28;20370;-77
2021/01/23 06:56:56;;;;;;;17.37;9.67;;;;;;;;;;4926951;29;20758;-77
2021/01/23 06:59:27;;;;;;;21.00;11.83;;;;;;;;;;4945073;28;20283;-77
2021/01/23 07:02:01;;;;;;;23.67;12.73;;;;;;;;;;4960274;28;20272;-77
2021/01/23 07:04:28;;;;;;;21.70;12.48;;;;;;;;;;4951367;28;20264;-77
2021/01/23 07:06:55;;;;;;;20.93;12.50;;;;;;;;;;4929800;29;20042;-77
2021/01/23 07:09:40;;;;;;;19.53;11.87;;;;;;;;;;4929593;29;20283;-78
2021/01/23 07:12:07;;;;;;;20.80;12.17;;;;;;;;;;4931769;29;20319;-78
2021/01/23 07:14:35;;;;;;;22.53;12.43;;;;;;;;;;4931393;29;20279;-77
2021/01/23 07:17:01;;;;;;;27.87;14.43;;;;;;;;;;4944505;28;20284;-77
2021/01/23 07:19:27;;;;;;;28.00;14.30;;;;;;;;;;4950223;28;20368;-77
2021/01/23 07:21:54;;;;;;;26.60;14.70;;;;;;;;;;4935662;28;20287;-77
2021/01/23 07:24:20;;;;;;;24.63;14.07;;;;;;;;;;4945250;29;20362;-77
2021/01/23 07:26:47;;;;;;;20.23;11.90;;;;;;;;;;4946788;28;20283;-78
2021/01/23 07:29:17;;;;;;;20.33;11.77;;;;;;;;;;4945874;28;20874;-78
2021/01/23 07:31:43;;;;;;;20.20;11.93;;;;;;;;;;4946300;29;20638;-81
2021/01/23 07:34:11;;;;;;;21.93;13.57;;;;;;;;;;4929141;29;20279;-77
2021/01/23 07:36:42;;;;;;;18.97;11.27;;;;;;;;;;4943628;29;20925;-78
2021/01/23 07:39:12;;;;;;;10.97;6.97;;;;;;;;;;4947913;28;20804;-78
2021/01/23 07:41:40;;;;;;;15.03;9.83;;;;;;;;;;4946310;29;20272;-78
2021/01/23 07:44:09;;;;;;;14.10;8.93;;;;;;;;;;4929840;29;20521;-77
2021/01/23 07:46:36;;;;;;;15.40;9.00;;;;;;;;;;4954565;28;20828;-78
2021/01/23 07:49:02;;;;;;;15.47;9.37;;;;;;;;;;4951488;28;20279;-78
2021/01/23 07:51:30;;;;;;;13.30;8.17;;;;;;;;;;4934221;29;20275;-78
2021/01/23 07:54:15;;;;;;;14.37;10.73;;;;;;;;;;4939625;28;20283;-78
2021/01/23 07:56:51;;;;;;;18.40;10.90;;;;;;;;;;4948217;29;20322;-78
2021/01/23 07:59:17;;;;;;;16.43;10.17;;;;;;;;;;4949132;28;20275;-78
2021/01/23 08:01:43;;;;;;;19.30;10.77;;;;;;;;;;4935887;29;20272;-79
2021/01/23 08:04:28;;;;;;;14.03;7.90;;;;;;;;;;4939157;29;20282;-81
2021/01/23 08:07:13;;;;;;;16.60;11.17;;;;;;;;;;4947844;28;20773;-77
2021/01/23 08:09:39;;;;;;;12.57;7.63;;;;;;;;;;4965100;28;20264;-77
2021/01/23 08:12:14;;;;;;;9.87;5.93;;;;;;;;;;4928527;29;20287;-78
2021/01/23 08:14:50;;;;;;;10.80;6.77;;;;;;;;;;4932373;29;20302;-78
2021/01/23 08:17:16;;;;;;;11.13;5.73;;;;;;;;;;4948220;29;20295;-79
2021/01/23 08:19:52;;;;;;;9.83;6.20;;;;;;;;;;4934495;29;20322;-78
2021/01/23 08:22:18;;;;;;;8.77;5.73;;;;;;;;;;4933967;29;20268;-78
2021/01/23 08:24:44;;;;;;;8.87;5.20;;;;;;;;;;4935896;29;20276;-78
2021/01/23 08:27:20;;;;;;;9.17;6.10;;;;;;;;;;4933606;29;20398;-79
2021/01/23 08:29:52;;;;;;;7.93;4.53;;;;;;;;;;4932796;29;20276;-78
2021/01/23 08:32:18;;;;;;;7.70;4.97;;;;;;;;;;4940627;28;20282;-78
2021/01/23 08:34:46;;;;;;;7.03;4.20;;;;;;;;;;4957326;28;20287;-79
2021/01/23 08:37:12;;;;;;;7.87;4.50;;;;;;;;;;4945892;28;20294;-78
2021/01/23 08:39:45;;;;;;;7.83;4.90;;;;;;;;;;4934270;29;20781;-78
2021/01/23 08:42:11;;;;;;;7.90;4.83;;;;;;;;;;4940381;29;20263;-78
2021/01/23 08:44:38;;;;;;;7.93;4.50;;;;;;;;;;4956049;28;20282;-81
2021/01/23 08:47:05;;;;;;;7.77;5.20;;;;;;;;;;4937441;29;20279;-78
2021/01/23 08:49:31;;;;;;;7.97;5.27;;;;;;;;;;4939806;29;20271;-78
2021/01/23 08:51:57;;;;;;;9.33;6.10;;;;;;;;;;4939918;29;20267;-79
2021/01/23 08:54:23;;;;;;;15.17;7.80;;;;;;;;;;4934912;29;20382;-77
2021/01/23 08:56:49;;;;;;;7.67;4.07;;;;;;;;;;4936434;29;20323;-77
2021/01/23 08:59:15;;;;;;;10.87;7.23;;;;;;;;;;4934003;29;20279;-78
2021/01/23 09:01:42;;;;;;;9.00;5.40;;;;;;;;;;4934407;29;20256;-78
2021/01/23 09:04:17;;;;;;;8.17;5.10;;;;;;;;;;4950509;29;20260;-80
2021/01/23 09:06:44;;;;;;;8.27;5.03;;;;;;;;;;4955328;29;20362;-79
2021/01/23 09:09:11;;;;;;;6.73;3.80;;;;;;;;;;4959762;28;20295;-79
2021/01/23 09:11:38;;;;;;;7.00;3.93;;;;;;;;;;4949371;29;20607;-81
2021/01/23 09:14:05;;;;;;;5.50;3.10;;;;;;;;;;4968381;28;20280;-82
2021/01/23 09:16:31;;;;;;;5.07;3.10;;;;;;;;;;4951416;29;20292;-80
2021/01/23 09:18:59;;;;;;;4.37;2.53;;;;;;;;;;4950620;28;20298;-80
2021/01/23 09:21:25;;;;;;;5.17;3.20;;;;;;;;;;4951042;28;20276;-81
2021/01/23 09:23:52;;;;;;;6.43;3.60;;;;;;;;;;4944469;28;20271;-81
2021/01/23 09:26:18;;;;;;;4.73;2.50;;;;;;;;;;4936736;29;20275;-81
2021/01/23 09:28:44;;;;;;;57.97;35.27;;;;;;;;;;4938545;29;20669;-80
2021/01/23 09:31:10;;;;;;;11.90;6.97;;;;;;;;;;4938745;29;20032;-80
2021/01/23 09:33:37;;;;;;;4.70;2.77;;;;;;;;;;4937753;29;20033;-80
2021/01/23 09:36:03;;;;;;;8.97;5.47;;;;;;;;;;4952619;29;20768;-80
2021/01/23 09:38:29;;;;;;;5.50;2.93;;;;;;;;;;4961781;28;20038;-80
2021/01/23 09:40:56;;;;;;;4.30;2.07;;;;;;;;;;4950764;29;20039;-81
2021/01/23 09:43:22;;;;;;;4.23;2.20;;;;;;;;;;4944954;29;20063;-79
2021/01/23 09:45:49;;;;;;;4.80;2.10;;;;;;;;;;4954605;29;20150;-82
2021/01/23 09:48:19;;;;;;;2.70;1.90;;;;;;;;;;4952399;28;20494;-78
2021/01/23 09:50:45;;;;;;;4.10;2.13;;;;;;;;;;4940587;29;20409;-77
2021/01/23 09:53:11;;;;;;;6.67;3.17;;;;;;;;;;4934618;29;20040;-77
2021/01/23 09:55:37;;;;;;;3.73;1.90;;;;;;;;;;4949424;29;20122;-78
2021/01/23 09:58:07;;;;;;;3.67;1.90;;;;;;;;;;4932251;29;20039;-77
2021/01/23 10:00:38;;;;;;;3.80;2.10;;;;;;;;;;4947758;29;20036;-79
2021/01/23 10:03:07;;;;;;;5.17;2.90;;;;;;;;;;4948622;29;20043;-78
2021/01/23 10:05:33;;;;;;;6.27;2.10;;;;;;;;;;4950370;28;20129;-78
2021/01/23 10:07:59;;;;;;;4.17;2.10;;;;;;;;;;4947505;28;20103;-78
2021/01/23 10:10:26;;;;;;;6.90;3.70;;;;;;;;;;4946643;28;20035;-77
2021/01/23 10:12:55;;;;;;;4.43;2.60;;;;;;;;;;4948125;28;20028;-78
2021/01/23 10:15:21;;;;;;;12.43;8.40;;;;;;;;;;4941906;29;20497;-77
2021/01/23 10:17:47;;;;;;;53.43;32.80;;;;;;;;;;4952098;28;20776;-77
2021/01/23 10:20:13;;;;;;;26.23;18.27;;;;;;;;;;4962654;28;20115;-78
2021/01/23 10:22:39;;;;;;;5.20;2.77;;;;;;;;;;4951215;28;20162;-79
2021/01/23 10:25:06;;;;;;;8.27;5.47;;;;;;;;;;4950630;29;20020;-80
2021/01/23 10:27:33;;;;;;;6.03;4.20;;;;;;;;;;4950762;29;20036;-79
2021/01/23 10:29:59;;;;;;;6.50;5.47;;;;;;;;;;4953581;29;20036;-80
2021/01/23 10:32:25;;;;;;;5.43;4.40;;;;;;;;;;4952832;29;20035;-80
2021/01/23 10:34:51;;;;;;;5.57;3.60;;;;;;;;;;4961582;29;20027;-80
2021/01/23 10:37:18;;;;;;;3.92;2.70;;;;;;;;;;4956672;28;20126;-81
2021/01/23 10:39:44;;;;;;;4.90;2.72;;;;;;;;;;4954440;29;20489;-80
2021/01/23 10:42:10;;;;;;;6.47;3.03;;;;;;;;;;4953237;29;20557;-80
2021/01/23 10:44:40;;;;;;;5.80;3.25;;;;;;;;;;4951040;29;20027;-80
2021/01/23 10:47:09;;;;;;;6.38;3.03;;;;;;;;;;4950894;29;20307;-80
2021/01/23 10:49:39;;;;;;;4.20;2.33;;;;;;;;;;4931559;29;20059;-80
2021/01/23 10:52:05;;;;;;;7.43;5.93;;;;;;;;;;4948550;29;20036;-79
2021/01/23 10:54:31;;;;;;;8.15;6.55;;;;;;;;;;4951660;28;20023;-82
2021/01/23 10:56:57;;;;;;;8.00;4.70;;;;;;;;;;4938584;29;20062;-81
2021/01/23 10:59:23;;;;;;;4.53;2.80;;;;;;;;;;4949206;28;20031;-81
2021/01/23 11:01:49;;;;;;;6.03;3.22;;;;;;;;;;4932250;29;20039;-82
2021/01/23 11:04:16;;;;;;;4.78;3.00;;;;;;;;;;4949906;28;20057;-82
2021/01/23 11:06:43;;;;;;;4.82;2.83;;;;;;;;;;4950546;29;20028;-81
2021/01/23 11:09:12;;;;;;;4.65;2.90;;;;;;;;;;4935134;29;20169;-80
2021/01/23 11:11:38;;;;;;;4.55;2.50;;;;;;;;;;4947252;29;20027;-83
2021/01/23 11:14:04;;;;;;;5.53;2.97;;;;;;;;;;4947118;29;20564;-83
2021/01/23 11:16:31;;;;;;;4.65;3.03;;;;;;;;;;4936791;29;20051;-82
2021/01/23 11:18:59;;;;;;;4.93;2.92;;;;;;;;;;4935639;29;20075;-84
2021/01/23 11:21:25;;;;;;;7.47;3.85;;;;;;;;;;4949312;28;20036;-83
2021/01/23 11:23:51;;;;;;;6.53;4.03;;;;;;;;;;4939604;29;20799;-82
2021/01/23 11:26:17;;;;;;;8.23;4.47;;;;;;;;;;4947303;29;20043;-81
2021/01/23 11:28:43;;;;;;;6.97;4.77;;;;;;;;;;4926460;29;20028;-82
2021/01/23 11:31:12;;;;;;;7.53;5.47;;;;;;;;;;4954196;28;20462;-82
2021/01/23 11:33:40;;;;;;;7.33;4.77;;;;;;;;;;4933681;29;20086;-83
2021/01/23 11:36:06;;;;;;;10.37;4.83;;;;;;;;;;4929746;29;20039;-81
2021/01/23 11:38:35;;;;;;;12.97;8.10;;;;;;;;;;4932706;29;20035;-83
2021/01/23 11:41:01;;;;;;;9.53;6.53;;;;;;;;;;4931620;29;20051;-83
2021/01/23 11:43:30;;;;;;;9.53;5.80;;;;;;;;;;4931053;29;20043;-81
2021/01/23 11:45:56;;;;;;;6.60;5.33;;;;;;;;;;4946870;29;20782;-83
2021/01/23 11:48:22;;;;;;;8.43;6.07;;;;;;;;;;4949542;28;21771;-83
2021/01/23 11:50:48;;;;;;;6.73;4.27;;;;;;;;;;4951167;29;20038;-81
2021/01/23 11:53:14;;;;;;;8.87;6.20;;;;;;;;;;4945482;29;20028;-82
2021/01/23 11:55:40;;;;;;;8.47;6.40;;;;;;;;;;4946499;29;20035;-83
2021/01/23 11:58:09;;;;;;;10.83;5.30;;;;;;;;;;4932904;29;20067;-83
2021/01/23 12:00:35;;;;;;;9.40;5.23;;;;;;;;;;4932841;29;20486;-83
2021/01/23 12:03:02;;;;;;;8.47;5.27;;;;;;;;;;4953362;28;20019;-83
2021/01/23 12:05:32;;;;;;;8.93;5.63;;;;;;;;;;4946992;28;20024;-82
2021/01/23 12:07:59;;;;;;;10.77;5.80;;;;;;;;;;4943070;28;20032;-81
2021/01/23 12:10:26;;;;;;;6.60;4.30;;;;;;;;;;4948402;28;20056;-82
2021/01/23 12:12:52;;;;;;;6.13;4.20;;;;;;;;;;4949121;29;20023;-82
2021/01/23 12:15:18;;;;;;;7.07;4.10;;;;;;;;;;4933320;29;20388;-83
2021/01/23 12:17:46;;;;;;;10.50;4.80;;;;;;;;;;4947184;28;20398;-81
2021/01/23 12:20:12;;;;;;;8.50;5.27;;;;;;;;;;4948617;29;20039;-80
2021/01/23 12:22:41;;;;;;;7.73;4.97;;;;;;;;;;4947946;28;20156;-80
2021/01/23 12:25:08;;;;;;;9.07;5.47;;;;;;;;;;4949618;29;20064;-81
2021/01/23 12:27:35;;;;;;;8.00;4.03;;;;;;;;;;4936370;29;20039;-80
2021/01/23 12:30:01;;;;;;;8.37;4.87;;;;;;;;;;4946676;29;20115;-82
2021/01/23 12:32:29;;;;;;;7.07;4.60;;;;;;;;;;4951119;29;20406;-81
2021/01/23 12:34:55;;;;;;;9.90;4.50;;;;;;;;;;4953421;29;20031;-81
2021/01/23 12:37:21;;;;;;;7.73;4.37;;;;;;;;;;4950354;29;20061;-81
2021/01/23 12:39:49;;;;;;;7.67;4.27;;;;;;;;;;4952005;29;20027;-81
2021/01/23 12:42:15;;;;;;;8.23;4.17;;;;;;;;;;4950282;29;20114;-80
2021/01/23 12:44:41;;;;;;;7.13;4.60;;;;;;;;;;4936383;29;20091;-81
2021/01/23 12:47:07;;;;;;;6.57;3.97;;;;;;;;;;4949714;28;20044;-81
2021/01/23 12:49:33;;;;;;;7.10;3.87;;;;;;;;;;4950093;28;20032;-80
2021/01/23 12:51:59;;;;;;;7.27;4.00;;;;;;;;;;4951890;29;20055;-81
2021/01/23 12:54:26;;;;;;;6.23;3.77;;;;;;;;;;4951590;29;20034;-81
2021/01/23 12:56:53;;;;;;;7.40;3.90;;;;;;;;;;4949024;29;20086;-81
2021/01/23 12:59:19;;;;;;;7.23;4.20;;;;;;;;;;4933684;29;20063;-78
2021/01/23 13:01:45;;;;;;;8.37;4.07;;;;;;;;;;4951747;29;20079;-79
2021/01/23 13:04:11;;;;;;;7.00;4.10;;;;;;;;;;4954020;29;20035;-79
2021/01/23 13:06:37;;;;;;;6.83;4.10;;;;;;;;;;4951226;29;20031;-81
2021/01/23 13:09:04;;;;;;;8.60;4.50;;;;;;;;;;4952632;28;20066;-78
2021/01/23 13:11:30;;;;;;;8.20;4.03;;;;;;;;;;4937628;29;20035;-81
2021/01/23 13:13:58;;;;;;;7.63;4.10;;;;;;;;;;4953759;29;20040;-79
2021/01/23 13:16:26;;;;;;;7.27;3.90;;;;;;;;;;4953484;29;20027;-80
2021/01/23 13:18:52;;;;;;;7.43;4.00;;;;;;;;;;4928606;29;20426;-80
2021/01/23 13:21:20;;;;;;;9.13;5.07;;;;;;;;;;4942918;29;20117;-77
2021/01/23 13:23:49;;;;;;;7.27;4.30;;;;;;;;;;4959926;28;20493;-79
2021/01/23 13:26:16;;;;;;;8.67;4.40;;;;;;;;;;4935429;29;20031;-80
2021/01/23 13:28:42;;;;;;;6.13;3.47;;;;;;;;;;4946950;28;20046;-80
2021/01/23 13:31:09;;;;;;;9.63;5.23;;;;;;;;;;4951987;29;20042;-80
2021/01/23 13:33:35;;;;;;;9.57;4.93;;;;;;;;;;4935095;29;20031;-81
2021/01/23 13:36:01;;;;;;;8.27;5.30;;;;;;;;;;4934882;29;20063;-82
2021/01/23 13:38:27;;;;;;;11.60;5.30;;;;;;;;;;4949820;28;20061;-81
2021/01/23 13:40:53;;;;;;;8.03;4.90;;;;;;;;;;4934744;29;20031;-81
2021/01/23 13:43:19;;;;;;;8.40;4.70;;;;;;;;;;4950984;29;20099;-82
2021/01/23 13:45:45;;;;;;;7.77;3.97;;;;;;;;;;4949793;28;20036;-82
2021/01/23 13:48:11;;;;;;;9.07;4.13;;;;;;;;;;4949575;28;20261;-81
2021/01/23 13:50:38;;;;;;;8.10;4.47;;;;;;;;;;4933845;29;20122;-80
2021/01/23 13:53:04;;;;;;;7.37;4.33;;;;;;;;;;4949598;29;20032;-79
2021/01/23 13:55:33;;;;;;;7.43;4.50;;;;;;;;;;4934179;29;20046;-79
2021/01/23 13:57:59;;;;;;;7.77;4.43;;;;;;;;;;4949427;28;20028;-80
2021/01/23 14:00:25;;;;;;;8.30;4.87;;;;;;;;;;4934040;29;20399;-82
2021/01/23 14:02:52;;;;;;;6.80;4.20;;;;;;;;;;4949987;29;20028;-81
2021/01/23 14:05:18;;;;;;;8.93;5.30;;;;;;;;;;4935685;29;20032;-81
2021/01/23 14:07:44;;;;;;;8.27;5.70;;;;;;;;;;4948163;28;20762;-80
2021/01/23 14:10:10;;;;;;;11.87;6.70;;;;;;;;;;4936002;29;20039;-82
2021/01/23 14:12:36;;;;;;;9.73;6.43;;;;;;;;;;4945213;29;20050;-82
2021/01/23 14:15:03;;;;;;;13.40;8.03;;;;;;;;;;4951168;29;20032;-82
2021/01/23 14:17:29;;;;;;;8.90;5.10;;;;;;;;;;4950381;29;20038;-81
2021/01/23 14:19:56;;;;;;;7.83;4.77;;;;;;;;;;4935360;29;20034;-80
2021/01/23 14:22:22;;;;;;;9.00;6.03;;;;;;;;;;4950426;29;20027;-80
2021/01/23 14:24:50;;;;;;;9.20;5.60;;;;;;;;;;4948357;28;20283;-81
2021/01/23 14:27:17;;;;;;;11.33;6.70;;;;;;;;;;4950077;28;20260;-81
2021/01/23 14:29:43;;;;;;;11.77;7.17;;;;;;;;;;4948472;28;20801;-82
2021/01/23 14:32:09;;;;;;;11.83;7.23;;;;;;;;;;4950471;28;20818;-82
2021/01/23 14:34:35;;;;;;;10.47;6.60;;;;;;;;;;4936519;29;20307;-81
2021/01/23 14:37:01;;;;;;;12.57;7.87;;;;;;;;;;4951432;29;20796;-80
2021/01/23 14:39:27;;;;;;;11.30;7.47;;;;;;;;;;4950120;28;20415;-80
2021/01/23 14:41:53;;;;;;;12.73;7.87;;;;;;;;;;4931956;29;20268;-81